METAR、SPECI、TAF(飛行場実況・予報)


■ METAR、SPECI(飛行場実況)

METAR RJBE 270100Z 05010KT 8000 -SHRA FEW005 BKN012 BKN030 19/18 Q1005 RMK 1ST005 5CU012 7CU030 A2969
METAR RJBE 270200Z 05008KT 8000 FEW005 SCT010 BKN030 20/19 Q1005 RMK 1ST005 4CU010 7CU030 A2968
METAR RJBE 270300Z 05007KT 8000 FEW005 BKN010 BKN030 20/19 Q1004 RMK 1ST005 6CU010 7CU030 A2966
SPECI RJBE 270322Z 04006KT 8000 FEW004 BKN009 BKN030 21/19 Q1004 RMK 1ST004 5ST009 7CU030 A2966
METAR RJBE 270400Z 05005KT 9000 FEW003 BKN007 BKN015 22/20 Q1003 RMK 1ST003 5ST007 7CU015 A2964
METAR RJBE 270500Z VRB02KT 9999 FEW004 BKN008 BKN050 24/21 Q1003 RMK 1ST004 5ST008 7SC050 A2964
SPECI RJBE 270518Z 27004KT 210V330 9999 FEW004 SCT008 BKN/// 24/22 Q1003 RMK 1ST004 4ST008 A2964
METAR RJBE 270600Z 26004KT 190V300 9999 FEW005 SCT050 BKN150 24/21 Q1003 RMK 1ST005 3SC050 5AC150 A2962
METAR RJBE 270700Z 28006KT 9999 FEW006 SCT045 24/21 Q1003 RMK 1ST006 4CU045 A2962
METAR RJBE 270800Z 26008KT 9999 VCSH FEW007 SCT030 BKN045 24/21 Q1002 RMK 1ST007 3CU030 5CU045 A2961
METAR RJBE 270900Z 29008KT 9999 FEW008 SCT035 BKN050 23/21 Q1003 RMK 1ST008 3CU035 6SC050 A2962
METAR RJBE 271000Z 27010KT 9999 FEW007 FEW025CB BKN035 BKN100 22/21 Q1003 RMK 1ST007 1CB025 6CU035 7AC100 A2963 CB 30KM NW MOV NE
METAR RJBE 271100Z 25011KT 9999 -SHRA FEW006 BKN020 FEW025CB BKN060 22/21 Q1004 RMK 1ST006 6CU020 1CB025 7SC060 A2965 CB 35KM NW AND 30KM N MOV NE
METAR RJBE 271200Z 25011KT 9999 VCSH FEW005 SCT010 BKN015 21/21 Q1004 RMK 1ST005 3CU010 7CU015 A2965
METAR RJBE 271300Z 24011KT 9000 -SHRA FEW003 SCT006 BKN010 FEW015CB 21/21 Q1004 RMK 1ST003 3ST006 7CU010 1CB015 A2965 CB 40KM SW MOV NE
SPECI RJBE 272110Z 20015KT 4500 -SHRA BR FEW003 SCT015 FEW025CB BKN045 21/20 Q1002 RMK 1ST003 3CU015 1CB025 5CU045 A2960 CB NW
METAR RJBE 272200Z 21010KT 5000 -SHRA BR FEW003 SCT045 BKN060 20/20 Q1002 RMK 1ST003 4CU045 6SC060 A2960
SPECI RJBE 272250Z VRB02KT 4000 R09/2000N SHRA BR FEW003 SCT045 BKN060 21/20 Q1002 RMK 1ST003 4CU045 6SC060 A2959
METAR RJBE 272300Z 11004KT 080V160 4000 SHRA BR FEW003 SCT025 BKN050 21/20 Q1002 RMK 1ST003 3CU025 5SC050 A2959
SPECI RJBE 272330Z 14003KT 080V240 9999 SHRA FEW005 SCT045 BKN060 21/21 Q1001 RMK 1ST005 4CU045 6SC060 A2958
METAR RJBE 280000Z 19003KT 090V230 8000 -SHRA FEW005 SCT040 BKN080 21/20 Q1001 RMK 1ST005 4CU040 7AC080 A2958
METAR RJBE 280100Z 03005KT 8000 -SHRA FEW005 SCT015 BKN025 21/21 Q1000 RMK 1ST005 3CU015 5CU025 A2954
SPECI RJBE 280111Z 03007KT 4000 SHRA BR FEW005 SCT010 BKN025 21/21 Q1000 RMK 1ST005 3CU010 5CU025 A2953
SPECI RJBE 280139Z 36003KT 290V070 3000 R09/2000N +SHRA BR FEW005 SCT010 BKN020 21/20 Q1000 RMK 1ST005 3CU010 5CU020 A2953
SPECI RJBE 280153Z 02004KT 4000 SHRA BR FEW005 SCT010 BKN020 21/21 Q0999 RMK 1ST005 3CU010 5CU020 A2953
METAR RJBE 280200Z 04006KT 4500 SHRA BR FEW005 SCT010 BKN015 21/21 Q0999 RMK 1ST005 3CU010 5CU015 A2951
SPECI RJBE 280217Z 05009KT 2000 R09/1600VP2000N +SHRA BR FEW005 SCT010 BKN015 FEW020CB 21/21 Q0999 RMK 1ST005 3CU010 5CU015 1CB020 A2951 CB 20KM W MOV NE
METAR RJBE 280300Z 06006KT 030V120 3500 SHRA BR FEW001 BKN007 BKN015 FEW020CB 21/21 Q0998 RMK 1ST001 5ST007 7CU015 1CB020 A2949 CB 20KM W MOV NE
SPECI RJBE 280310Z 08008KT 040V110 2000 +SHRA BR FEW001 BKN005 BKN008 SCT020CB 21/20 Q0998 RMK 1ST001 5ST005 6ST008 3CB020 A2948 CB OHD MOV NE
SPECI RJBE 280352Z 15005KT 090V220 5000 SHRA BR FEW001 SCT005 BKN008 FEW020CB 21/20 Q0998 RMK 1ST001 3ST005 5ST008 1CB020 A2948 CB 10KM NE MOV NE
METAR RJBE 280400Z 15008KT 100V200 5000 -SHRA BR FEW001 SCT005 BKN008 FEW020CB 21/20 Q0998 RMK 1ST001 3ST005 5ST008 1CB020 A2947 CB 15KM NE MOV NE
SPECI RJBE 280418Z 13004KT 080V180 5000 SHRA BR FEW001 SCT005 BKN010 FEW020CB 21/20 Q0997 RMK 1ST001 3ST005 5CU010 1CB020 A2945 CB 10KM N MOV NE P/FR
SPECI RJBE 280437Z 05007KT 4500 SHRA BR FEW001 SCT005 BKN020 FEW025CB 21/20 Q0996 RMK 1ST001 3ST005 5CU020 1CB025 A2942 CB 25KM N MOV NE P/FR
METAR RJBE 280500Z 06008KT 3500 SHRA BR FEW001 SCT008 BKN020 20/20 Q0995 RMK 1ST001 3ST008 7CU020 A2939 P/FR
SPECI RJBE 280525Z 06013KT 2500 R09/2000N +SHRA BR FEW002 SCT005 BKN012 19/19 Q0994 RMK 1ST002 3ST005 7CU012 A2937
SPECI RJBE 280542Z 06008KT 3500 SHRA BR FEW002 SCT008 BKN012 19/19 Q0994 RMK 1ST002 3ST008 7CU012 A2937
SPECI RJBE 280553Z 03004KT 360V060 2000 R09/1800D +SHRA BR FEW002 SCT004 BKN012 19/18 Q0995 RMK 1ST002 3ST004 7CU012 A2939
METAR RJBE 280600Z 01004KT 280V050 2000 R09/1500VP2000N +SHRA BR FEW001 SCT004 BKN008 19/19 Q0995 RMK 1ST001 3ST004 5ST008 A2939
SPECI RJBE 280603Z 35003KT 280V050 1500 R09/0900VP2000D +SHRA BR FEW001 SCT004 BKN008 19/19 Q0995 RMK 1ST001 3ST004 5ST008 A2938 RI++
SPECI RJBE 280614Z 34006KT 2000 R09/1400VP2000U +SHRA BR FEW001 SCT004 BKN008 19/19 Q0994 RMK 1ST001 3ST004 5ST008 A2935
SPECI RJBE 280705Z 05015KT 1500 R09/1000VP2000U +SHRA BR FEW002 SCT005 BKN012 FEW025CB 17/16 Q0993 RMK 1ST002 3ST005 7CU012 1CB025 A2933 CB OHD MOV NE
METAR RJBE 280700Z 06014KT 1500 R09/1000V1900D +SHRA BR FEW002 SCT005 BKN012 FEW025CB 17/17 Q0993 RMK 1ST002 3ST005 7CU012 1CB025 A2933 CB OHD MOV NE
SPECI RJBE 280711Z 05014KT 4000 SHRA BR FEW002 SCT005 BKN015 FEW025CB 17/16 Q0993 RMK 1ST002 3ST005 7CU015 1CB025 A2934 CB 5KM NE MOV NE
SPECI RJBE 280731Z 24014KT 3000 +SHRA BR FEW002 SCT004 BKN015 18/18 Q0995 RMK 1ST002 3ST004 7CU015 A2938 P/RR
METAR RJBE 280800Z 30005KT 260V330 3500 SHRA BR FEW002 SCT004 BKN015 17/17 Q0995 RMK 1ST002 3ST004 5CU015 A2940
SPECI RJBE 280852Z 32011KT 5000 -SHRA BR FEW003 SCT005 BKN015 18/17 Q0997 RMK 1ST003 3ST005 5CU015 A2944
METAR RJBE 280900Z 33013KT 7000 -SHRA FEW003 SCT005 BKN015 17/16 Q0997 RMK 1ST003 3ST005 5CU015 A2945
METAR RJBE 281000Z 31012KT 9999 -SHRA FEW008 SCT012 BKN020 17/14 Q0999 RMK 1ST008 3CU012 5CU020 A2951 P/RR
METAR RJBE 281100Z 34011KT 9999 VCSH FEW008 SCT020 BKN025 17/14 Q1001 RMK 1ST008 3CU020 5CU025 A2957 P/RR
METAR RJBE 281200Z 32004KT 220V020 9999 FEW010 SCT020 BKN030 17/15 Q1002 RMK 1CU010 3CU020 7CU030 A2961
METAR RJBE 281300Z 14004KT 9999 FEW015 BKN040 17/15 Q1003 RMK 1CU015 7CU040 A2962
SPECI RJBE 282110Z 35006KT 310V020 9999 FEW020 SCT045 17/10 Q1010 RMK 1CU020 3CU045 A2984
METAR RJBE 282200Z 33007KT 300V010 9999 FEW020 SCT040 17/10 Q1011 RMK 1CU020 3CU040 A2986
METAR RJBE 282300Z 33007KT 260V020 9999 FEW020 SCT040 18/10 Q1011 RMK 1CU020 3CU040 A2987
METAR RJBE 290000Z 01008KT 330V050 9999 FEW020 SCT040 19/11 Q1011 RMK 1CU020 3CU040 A2987
METAR RJBE 290100Z 14004KT 080V180 9999 FEW020 SCT040 20/11 Q1012 RMK 1CU020 3CU040 A2988
METAR RJBE 290200Z 13006KT 9999 FEW025 21/12 Q1011 RMK 1CU025 A2987
METAR RJBE 290300Z 18005KT 140V210 9999 FEW030 21/12 Q1012 RMK 1CU030 A2989
METAR RJBE 290400Z 22009KT 9999 FEW030 21/12 Q1012 RMK 1CU030 A2990
METAR RJBE 290500Z 22009KT 9999 FEW030 21/12 Q1012 RMK 1CU030 A2991
METAR RJBE 290600Z 23010KT 9999 FEW030 22/12 Q1012 RMK 1CU030 A2991
METAR RJBE 290700Z 23007KT 190V270 9999 FEW030 21/13 Q1012 RMK 1CU030 A2989
METAR RJBE 290800Z 22007KT 9999 FEW030 21/13 Q1012 RMK 1CU030 A2989
METAR RJBE 290900Z 27009KT 9999 FEW030 SCT/// 21/13 Q1012 RMK 1CU030 A2989
METAR RJBE 291000Z VRB02KT CAVOK 21/12 Q1012 RMK A2991
METAR RJBE 291100Z 07009KT CAVOK 21/10 Q1013 RMK A2992
METAR RJBE 291200Z 06007KT CAVOK 21/09 Q1013 RMK A2992
METAR RJBE 291300Z 07008KT CAVOK 20/11 Q1013 RMK A2993
SPECI RJBE 292110Z 05011KT CAVOK 16/11 Q1014 RMK A2996
METAR RJBE 292200Z 06012KT CAVOK 17/12 Q1014 RMK A2996
METAR RJBE 292300Z 06010KT 9999 FEW030 BKN/// 19/12 Q1014 RMK 1CU030 A2997
METAR RJBE 300000Z 07009KT 9999 FEW030 BKN/// 21/12 Q1014 RMK 1CU030 A2997
METAR RJBE 300100Z 13006KT 9999 FEW030 BKN/// 22/14 Q1014 RMK 1CU030 A2996
METAR RJBE 300200Z 13004KT 090V160 9999 FEW035 BKN/// 24/11 Q1014 RMK 1CU035 A2994
METAR RJBE 300300Z 20005G15KT 170V240 CAVOK 23/13 Q1013 RMK A2993
METAR RJBE 300400Z 23006KT CAVOK 23/15 Q1013 RMK A2992
METAR RJBE 300500Z 23009KT 9999 FEW030 BKN130 BKN/// 23/15 Q1013 RMK 1CU030 6AC130 A2991
METAR RJBE 300600Z 25008KT 9999 FEW030 SCT120 BKN130 22/15 Q1012 RMK 1CU030 4AC120 6AC130 A2990
METAR RJBE 300700Z 26008KT 9999 FEW030 BKN120 BKN/// 21/16 Q1012 RMK 1CU030 6AC120 A2988
METAR RJBE 300800Z 23007KT 9999 FEW030 SCT120 BKN140 21/17 Q1011 RMK 1CU030 4AC120 6AC140 A2987
METAR RJBE 300900Z 28011KT 9999 FEW030 BKN090 BKN/// 21/17 Q1012 RMK 1CU030 5AC090 A2989
METAR RJBE 301000Z 25007KT 230V290 9999 FEW025 BKN090 21/16 Q1012 RMK 1CU025 7AC090 A2989
METAR RJBE 301100Z VRB03KT 9999 -RA FEW025 SCT050 BKN090 20/17 Q1012 RMK 1CU025 4SC050 7AC090 A2989

■ TAF(飛行場予報)


				

お知らせ

新着情報

  • 太陽光発電量推算
  • 気象予報士試験過去問・講座
  • Yahoo Weather shop
  • メルカリ Weather shop

ご案内